Time;durP1;ratioP1;P1;durP2;ratioP2;P2;SDS_P1;SDS_P2;PMS_P1;PMS_P2;Temp;Humidity;BMP_temperature;BMP_pressure;BME280_temperature;BME280_humidity;BME280_pressure;Samples;Min_cycle;Max_cycle;Signal;HPM_P1;HPM_P2
2021/12/29 00:01:25;;;;;;;6.53;1.80;;;9.30;99.90;;;;;;5091346;28;20651;-61
2021/12/29 00:03:51;;;;;;;11.30;2.17;;;9.30;99.90;;;;;;5091552;28;20264;-61
2021/12/29 00:06:17;;;;;;;7.40;1.70;;;9.30;99.90;;;;;;5091750;28;20184;-63
2021/12/29 00:08:43;;;;;;;6.40;2.10;;;9.30;99.90;;;;;;5091643;28;20176;-62
2021/12/29 00:11:08;;;;;;;11.35;2.00;;;9.30;99.90;;;;;;5090550;28;20179;-64
2021/12/29 00:13:34;;;;;;;13.35;2.63;;;9.30;99.90;;;;;;5090414;28;20638;-61
2021/12/29 00:16:00;;;;;;;7.78;2.55;;;9.30;99.90;;;;;;5091784;28;20181;-62
2021/12/29 00:18:32;;;;;;;10.35;2.15;;;9.30;99.90;;;;;;5090131;28;20179;-62
2021/12/29 00:20:59;;;;;;;8.90;1.83;;;9.30;99.90;;;;;;5091197;28;20168;-61
2021/12/29 00:23:25;;;;;;;8.05;2.00;;;9.30;99.90;;;;;;5090320;28;20582;-62
2021/12/29 00:25:52;;;;;;;9.10;2.10;;;9.20;99.90;;;;;;5091587;28;20169;-62
2021/12/29 00:28:17;;;;;;;8.88;2.13;;;9.20;99.90;;;;;;5090163;28;20179;-62
2021/12/29 00:30:44;;;;;;;9.07;1.75;;;9.30;99.90;;;;;;5091482;28;20650;-60
2021/12/29 00:33:10;;;;;;;10.20;1.98;;;9.20;99.90;;;;;;5091676;28;20321;-61
2021/12/29 00:35:38;;;;;;;8.73;1.73;;;9.20;99.90;;;;;;5091281;28;20168;-62
2021/12/29 00:38:09;;;;;;;9.10;2.03;;;9.20;99.90;;;;;;5071840;28;20257;-61
2021/12/29 00:40:36;;;;;;;9.40;1.80;;;9.20;99.90;;;;;;5089733;28;20181;-60
2021/12/29 00:43:03;;;;;;;9.23;1.80;;;9.20;99.90;;;;;;5089829;28;20215;-61
2021/12/29 00:45:32;;;;;;;8.48;1.70;;;9.20;99.90;;;;;;5096004;28;20645;-61
2021/12/29 00:47:57;;;;;;;12.55;2.38;;;9.10;99.90;;;;;;5097514;28;20185;-61
2021/12/29 00:50:23;;;;;;;11.95;1.92;;;9.10;99.90;;;;;;5081469;28;20177;-61
2021/12/29 00:52:49;;;;;;;9.25;1.92;;;9.10;99.90;;;;;;5074738;28;20184;-61
2021/12/29 00:55:16;;;;;;;11.40;1.98;;;9.10;99.90;;;;;;5084934;28;20524;-61
2021/12/29 00:57:43;;;;;;;9.55;1.70;;;9.10;99.90;;;;;;5095420;28;20226;-60
2021/12/29 01:00:12;;;;;;;7.93;1.65;;;9.10;99.90;;;;;;5089286;28;20190;-61
2021/12/29 01:02:38;;;;;;;14.25;2.45;;;9.10;99.90;;;;;;5075372;28;20227;-61
2021/12/29 01:05:05;;;;;;;5.78;1.67;;;9.00;99.90;;;;;;5095001;28;20535;-63
2021/12/29 01:07:30;;;;;;;8.85;1.73;;;9.00;99.90;;;;;;5095245;28;20695;-60
2021/12/29 01:09:56;;;;;;;7.25;1.60;;;9.00;99.90;;;;;;5095034;28;20276;-60
2021/12/29 01:12:22;;;;;;;7.72;1.60;;;9.00;99.90;;;;;;5094638;28;20172;-60
2021/12/29 01:14:52;;;;;;;14.70;1.73;;;9.00;99.90;;;;;;5094676;28;20188;-60
2021/12/29 01:17:18;;;;;;;9.88;2.20;;;9.00;99.90;;;;;;5094981;28;20176;-60
2021/12/29 01:19:43;;;;;;;7.30;1.80;;;9.00;99.90;;;;;;5095194;28;20221;-60
2021/12/29 01:22:10;;;;;;;7.65;1.90;;;9.00;99.90;;;;;;5094286;28;20184;-60
2021/12/29 01:24:36;;;;;;;7.85;1.75;;;9.00;99.90;;;;;;5094736;28;20187;-62
2021/12/29 01:27:02;;;;;;;10.07;1.75;;;9.00;99.90;;;;;;5094325;28;20187;-61
2021/12/29 01:29:28;;;;;;;8.50;1.85;;;9.00;99.90;;;;;;5094680;28;20257;-61
2021/12/29 01:31:54;;;;;;;13.43;2.13;;;9.00;99.90;;;;;;5092992;28;20168;-60
2021/12/29 01:34:20;;;;;;;12.55;2.40;;;9.00;99.90;;;;;;5094395;28;20655;-60
2021/12/29 01:36:45;;;;;;;11.23;2.05;;;8.90;99.90;;;;;;5094429;28;20199;-61
2021/12/29 01:39:15;;;;;;;12.63;1.83;;;9.00;99.90;;;;;;5094165;28;20644;-61
2021/12/29 01:41:42;;;;;;;5.93;1.80;;;8.90;99.90;;;;;;5093762;28;20211;-61
2021/12/29 01:44:09;;;;;;;15.48;3.53;;;8.90;99.90;;;;;;5094097;28;20235;-61
2021/12/29 01:46:35;;;;;;;6.63;1.52;;;8.90;99.90;;;;;;5094504;28;20212;-61
2021/12/29 01:49:01;;;;;;;6.93;1.45;;;8.90;99.90;;;;;;5094571;28;20260;-61
2021/12/29 01:51:29;;;;;;;6.93;1.50;;;8.90;99.90;;;;;;5093743;28;20250;-61
2021/12/29 01:56:38;;;;;;;7.20;1.55;;;8.90;99.90;;;;;;5094188;28;20282;-61
2021/12/29 01:59:04;;;;;;;8.52;1.88;;;8.90;99.90;;;;;;5094169;28;20596;-62
2021/12/29 02:01:29;;;;;;;9.57;1.67;;;8.90;99.90;;;;;;5093414;28;20251;-62
2021/12/29 02:03:58;;;;;;;5.68;1.83;;;8.90;99.90;;;;;;5093600;28;20291;-62
2021/12/29 02:06:23;;;;;;;4.15;1.48;;;8.90;99.90;;;;;;5093899;28;20612;-62
2021/12/29 02:08:51;;;;;;;6.03;1.88;;;8.90;99.90;;;;;;5093858;28;20182;-62
2021/12/29 02:11:17;;;;;;;5.65;1.73;;;8.90;99.90;;;;;;5077254;28;20237;-62
2021/12/29 02:13:43;;;;;;;7.22;1.63;;;8.80;99.90;;;;;;5093199;28;20544;-62
2021/12/29 02:16:09;;;;;;;5.28;1.52;;;8.80;99.90;;;;;;5093445;28;20202;-62
2021/12/29 02:18:37;;;;;;;9.13;1.80;;;8.80;99.90;;;;;;5092666;28;20199;-61
2021/12/29 02:21:03;;;;;;;7.22;1.58;;;8.80;99.90;;;;;;5093392;28;20184;-62
2021/12/29 02:23:34;;;;;;;4.82;1.50;;;8.80;99.90;;;;;;5094027;28;20222;-62
2021/12/29 02:26:02;;;;;;;11.35;1.65;;;8.80;99.90;;;;;;5093457;28;20176;-62
2021/12/29 02:28:41;;;;;;;4.80;1.45;;;8.80;99.90;;;;;;5093324;28;20643;-62
2021/12/29 02:31:07;;;;;;;8.95;1.92;;;8.80;99.90;;;;;;5093435;28;20325;-61
2021/12/29 02:33:34;;;;;;;4.38;1.45;;;8.80;99.90;;;;;;5092222;28;20176;-61
2021/12/29 02:36:01;;;;;;;2.83;1.17;;;8.80;99.90;;;;;;5092865;28;20631;-61
2021/12/29 02:38:34;;;;;;;3.30;1.40;;;8.80;99.90;;;;;;5093231;28;20184;-61
2021/12/29 02:41:07;;;;;;;5.75;1.67;;;8.90;99.90;;;;;;5093040;28;20576;-61
2021/12/29 02:43:36;;;;;;;8.23;1.80;;;8.90;99.90;;;;;;5091653;28;20218;-61
2021/12/29 02:46:08;;;;;;;6.75;1.90;;;8.80;99.90;;;;;;5092573;28;20237;-61
2021/12/29 02:48:37;;;;;;;8.60;1.75;;;8.80;99.90;;;;;;5093141;28;20184;-60
2021/12/29 02:51:07;;;;;;;5.90;1.40;;;8.80;99.90;;;;;;5093351;28;20516;-61
2021/12/29 02:53:33;;;;;;;5.00;1.35;;;8.80;99.90;;;;;;5092680;28;20183;-61
2021/12/29 02:55:58;;;;;;;7.70;1.55;;;8.80;99.90;;;;;;5092975;28;20188;-61
2021/12/29 02:58:24;;;;;;;5.72;1.30;;;8.80;99.90;;;;;;5092761;28;20575;-61
2021/12/29 03:00:53;;;;;;;4.30;1.23;;;8.80;99.90;;;;;;5092712;28;20226;-61
2021/12/29 03:03:25;;;;;;;4.35;1.20;;;8.80;99.90;;;;;;5092531;28;20294;-61
2021/12/29 03:05:50;;;;;;;7.90;1.20;;;8.80;99.90;;;;;;5093047;28;20226;-62
2021/12/29 03:08:18;;;;;;;6.95;1.42;;;8.80;99.90;;;;;;5092646;28;20196;-62
2021/12/29 03:10:45;;;;;;;8.88;1.42;;;8.80;99.90;;;;;;5094471;28;20176;-61
2021/12/29 03:13:11;;;;;;;11.35;1.67;;;8.80;99.90;;;;;;5092528;28;20249;-61
2021/12/29 03:15:37;;;;;;;4.45;1.48;;;8.80;99.90;;;;;;5092437;28;20176;-61
2021/12/29 03:18:05;;;;;;;6.22;1.23;;;8.80;99.90;;;;;;5092302;28;20172;-62
2021/12/29 03:20:31;;;;;;;7.45;1.80;;;8.70;99.90;;;;;;5093177;28;20262;-61
2021/12/29 03:22:57;;;;;;;11.63;1.95;;;8.70;99.90;;;;;;5092897;28;20207;-62
2021/12/29 03:25:24;;;;;;;10.23;1.60;;;8.70;99.90;;;;;;5092441;28;20270;-61
2021/12/29 03:27:51;;;;;;;6.35;1.58;;;8.70;99.90;;;;;;5090936;28;20184;-61
2021/12/29 03:30:17;;;;;;;5.93;1.45;;;8.70;99.90;;;;;;5091171;28;20523;-62
2021/12/29 03:32:50;;;;;;;8.80;1.58;;;8.60;99.90;;;;;;5090840;28;20187;-62
2021/12/29 03:35:16;;;;;;;9.32;1.60;;;8.60;99.90;;;;;;5090959;28;20199;-62
2021/12/29 03:37:41;;;;;;;7.22;1.70;;;8.60;99.90;;;;;;5092540;28;20176;-61
2021/12/29 03:40:08;;;;;;;5.63;1.55;;;8.60;99.90;;;;;;5090780;28;20187;-61
2021/12/29 03:42:33;;;;;;;7.28;1.63;;;8.50;99.90;;;;;;5092407;28;20211;-60
2021/12/29 03:44:59;;;;;;;7.30;1.40;;;8.50;99.90;;;;;;5092119;28;20180;-61
2021/12/29 03:47:25;;;;;;;7.65;1.67;;;8.50;99.90;;;;;;5091687;28;20180;-60
2021/12/29 03:49:50;;;;;;;5.25;1.30;;;8.50;99.90;;;;;;5092103;28;20168;-61
2021/12/29 03:52:16;;;;;;;4.65;1.10;;;8.50;99.90;;;;;;5090212;28;20187;-61
2021/12/29 03:54:42;;;;;;;6.43;1.50;;;8.50;99.90;;;;;;5091984;28;20718;-61
2021/12/29 03:57:07;;;;;;;4.80;1.23;;;8.50;99.90;;;;;;5091338;28;20314;-62
2021/12/29 03:59:33;;;;;;;9.18;1.45;;;8.50;99.90;;;;;;5091986;28;20655;-61
2021/12/29 04:02:00;;;;;;;6.72;1.38;;;8.50;99.90;;;;;;5091839;28;20583;-61
2021/12/29 04:04:26;;;;;;;2.72;1.00;;;8.50;99.90;;;;;;5091436;28;20211;-61
2021/12/29 04:06:51;;;;;;;3.90;1.20;;;8.60;99.90;;;;;;5090977;28;20232;-61
2021/12/29 04:09:17;;;;;;;4.93;1.48;;;8.60;99.90;;;;;;5070402;28;20189;-61
2021/12/29 04:11:42;;;;;;;1.38;0.90;;;8.60;99.90;;;;;;5080142;28;20169;-61
2021/12/29 04:14:08;;;;;;;1.98;1.05;;;8.60;99.90;;;;;;5087216;28;20383;-61
2021/12/29 04:16:40;;;;;;;3.67;1.10;;;8.60;99.90;;;;;;5078332;28;20175;-61
2021/12/29 04:19:07;;;;;;;4.93;1.00;;;8.60;99.90;;;;;;5087048;28;20187;-61
2021/12/29 04:21:37;;;;;;;3.50;0.90;;;8.60;99.90;;;;;;5106198;28;20176;-60
2021/12/29 04:24:06;;;;;;;2.67;1.00;;;8.60;99.90;;;;;;5091411;28;20265;-60
2021/12/29 04:26:35;;;;;;;6.15;1.15;;;8.50;99.90;;;;;;5094115;28;20180;-61
2021/12/29 04:29:01;;;;;;;3.85;1.48;;;8.50;99.90;;;;;;5095222;28;20255;-61
2021/12/29 04:31:26;;;;;;;3.70;0.90;;;8.50;99.90;;;;;;5095675;28;20639;-61
2021/12/29 04:33:52;;;;;;;3.78;1.30;;;8.50;99.90;;;;;;5095214;28;20170;-62
2021/12/29 04:36:24;;;;;;;4.70;1.00;;;8.50;99.90;;;;;;5095186;28;20184;-60
2021/12/29 04:38:50;;;;;;;2.63;1.02;;;8.50;99.90;;;;;;5095692;28;20175;-61
2021/12/29 04:41:15;;;;;;;2.38;1.00;;;8.50;99.90;;;;;;5095514;28;20182;-61
2021/12/29 04:43:41;;;;;;;1.80;0.80;;;8.50;99.90;;;;;;5093676;28;20286;-61
2021/12/29 04:46:07;;;;;;;1.90;0.68;;;8.50;99.90;;;;;;5095121;28;20179;-62
2021/12/29 04:48:38;;;;;;;3.53;1.02;;;8.50;99.90;;;;;;5095063;28;20183;-61
2021/12/29 04:51:11;;;;;;;2.67;0.82;;;8.50;99.90;;;;;;5095417;28;20213;-61
2021/12/29 04:53:37;;;;;;;3.85;0.70;;;8.50;99.90;;;;;;5094164;28;20203;-61
2021/12/29 04:56:02;;;;;;;3.45;0.90;;;8.50;99.90;;;;;;5093393;28;20203;-61
2021/12/29 04:58:28;;;;;;;6.43;1.10;;;8.50;99.90;;;;;;5094129;28;20251;-62
2021/12/29 05:00:53;;;;;;;2.47;0.70;;;8.50;99.90;;;;;;5095070;28;20598;-61
2021/12/29 05:03:20;;;;;;;2.72;0.60;;;8.50;99.90;;;;;;5094971;28;20260;-61
2021/12/29 05:08:24;;;;;;;3.40;0.70;;;8.50;99.90;;;;;;5094871;28;20176;-61
2021/12/29 05:08:45;;;;;;;3.13;0.95;;;8.50;99.90;;;;;;5094887;28;20240;-61
2021/12/29 05:11:15;;;;;;;3.25;0.88;;;8.50;99.90;;;;;;5093525;28;20182;-62
2021/12/29 05:13:44;;;;;;;3.83;0.85;;;8.50;99.90;;;;;;5090951;28;20180;-61
2021/12/29 05:16:10;;;;;;;2.75;0.75;;;8.50;99.90;;;;;;5094889;28;20176;-61
2021/12/29 05:18:37;;;;;;;2.30;1.10;;;8.50;99.90;;;;;;5094647;28;20176;-61
2021/12/29 05:21:05;;;;;;;3.97;0.90;;;8.50;99.90;;;;;;5093144;28;20271;-61
2021/12/29 05:23:31;;;;;;;3.47;0.88;;;8.50;99.90;;;;;;5094890;28;20552;-62
2021/12/29 05:25:57;;;;;;;3.28;0.77;;;8.50;99.90;;;;;;5094688;28;20176;-61
2021/12/29 05:28:24;;;;;;;1.55;1.00;;;8.50;99.90;;;;;;5094420;28;20195;-61
2021/12/29 05:30:50;;;;;;;0.60;0.60;;;8.50;99.90;;;;;;5092906;28;20180;-61
2021/12/29 05:33:16;;;;;;;4.03;0.80;;;8.50;99.90;;;;;;5094294;28;20650;-62
2021/12/29 05:35:42;;;;;;;2.20;0.73;;;8.50;99.90;;;;;;5094300;28;20183;-61
2021/12/29 05:38:08;;;;;;;3.40;0.82;;;8.50;99.90;;;;;;5093529;28;20606;-61
2021/12/29 05:40:34;;;;;;;1.95;0.50;;;8.50;99.90;;;;;;5094127;28;20545;-61
2021/12/29 05:42:59;;;;;;;1.73;0.70;;;8.50;99.90;;;;;;5094008;28;20200;-61
2021/12/29 05:45:27;;;;;;;1.80;0.80;;;8.40;99.90;;;;;;5094149;28;20176;-62
2021/12/29 05:47:53;;;;;;;1.70;0.80;;;8.50;99.90;;;;;;5094256;28;20700;-61
2021/12/29 05:50:22;;;;;;;4.03;1.00;;;8.50;99.90;;;;;;5093742;28;20192;-62
2021/12/29 05:52:48;;;;;;;5.22;0.82;;;8.40;99.90;;;;;;5094374;28;20184;-61
2021/12/29 05:55:14;;;;;;;5.22;1.23;;;8.40;99.90;;;;;;5094172;28;20640;-62
2021/12/29 05:57:40;;;;;;;3.45;1.38;;;8.50;99.90;;;;;;5093403;28;20702;-62
2021/12/29 06:00:09;;;;;;;3.78;1.10;;;8.40;99.90;;;;;;5093898;28;20187;-62
2021/12/29 06:02:35;;;;;;;4.57;1.30;;;8.50;99.90;;;;;;5093470;28;20216;-62
2021/12/29 06:05:01;;;;;;;4.05;1.50;;;8.50;99.90;;;;;;5093504;28;20586;-62
2021/12/29 06:07:26;;;;;;;4.53;1.10;;;8.50;99.90;;;;;;5094118;28;20184;-62
2021/12/29 06:09:52;;;;;;;8.15;1.35;;;8.50;99.90;;;;;;5093466;28;20200;-62
2021/12/29 06:12:17;;;;;;;8.38;1.60;;;8.50;99.90;;;;;;5092228;28;20251;-62
2021/12/29 06:14:44;;;;;;;6.88;1.83;;;8.50;99.90;;;;;;5092212;28;20237;-62
2021/12/29 06:17:11;;;;;;;5.28;1.60;;;8.50;99.90;;;;;;5075701;28;20168;-62
2021/12/29 06:19:37;;;;;;;6.32;1.83;;;8.50;99.90;;;;;;5093872;28;20250;-62
2021/12/29 06:22:04;;;;;;;5.47;1.50;;;8.50;99.90;;;;;;5093335;28;20206;-62
2021/12/29 06:24:29;;;;;;;7.22;1.50;;;8.50;99.90;;;;;;5093554;28;20204;-62
2021/12/29 06:26:56;;;;;;;4.32;1.48;;;8.50;99.90;;;;;;5093627;28;20662;-62
2021/12/29 06:29:21;;;;;;;6.07;1.30;;;8.40;99.90;;;;;;5092847;28;20225;-62
2021/12/29 06:31:48;;;;;;;4.20;1.30;;;8.50;99.90;;;;;;5092945;28;20176;-62
2021/12/29 06:34:13;;;;;;;4.28;1.10;;;8.50;99.90;;;;;;5093242;28;20241;-62
2021/12/29 06:36:40;;;;;;;5.32;1.20;;;8.40;99.90;;;;;;5093015;28;20639;-62
2021/12/29 06:39:06;;;;;;;3.47;1.08;;;8.40;99.90;;;;;;5093351;28;20279;-62
2021/12/29 06:41:32;;;;;;;5.28;1.27;;;8.40;99.90;;;;;;5092961;28;20188;-62
2021/12/29 06:43:57;;;;;;;1.52;0.90;;;8.40;99.90;;;;;;5092907;28;20218;-62
2021/12/29 06:46:23;;;;;;;4.97;1.33;;;8.40;99.90;;;;;;5092713;28;20272;-62
2021/12/29 06:48:48;;;;;;;3.00;1.27;;;8.40;99.90;;;;;;5092308;28;20183;-62
2021/12/29 06:51:14;;;;;;;3.58;1.00;;;8.40;99.90;;;;;;5090871;28;20192;-62
2021/12/29 06:53:40;;;;;;;3.30;1.90;;;8.40;99.90;;;;;;5093003;28;20168;-62
2021/12/29 06:56:06;;;;;;;6.28;1.63;;;8.30;99.90;;;;;;5093346;28;20658;-62
2021/12/29 06:58:32;;;;;;;3.60;1.55;;;8.30;99.90;;;;;;5092366;28;20311;-62
2021/12/29 07:00:58;;;;;;;6.43;2.00;;;8.30;99.90;;;;;;5091362;28;20546;-62
2021/12/29 07:03:23;;;;;;;4.03;1.77;;;8.30;99.90;;;;;;5092148;28;20215;-62
2021/12/29 07:05:49;;;;;;;5.55;1.60;;;8.20;99.90;;;;;;5092450;28;20176;-62
2021/12/29 07:08:14;;;;;;;4.07;1.70;;;8.20;99.90;;;;;;5092446;28;20728;-62
2021/12/29 07:10:42;;;;;;;6.43;1.60;;;8.20;99.90;;;;;;5092220;28;20674;-62
2021/12/29 07:13:08;;;;;;;8.15;1.88;;;8.20;99.90;;;;;;5092221;28;20179;-62
2021/12/29 07:15:33;;;;;;;6.05;1.77;;;8.20;99.90;;;;;;5092178;28;20176;-61
2021/12/29 07:17:59;;;;;;;5.80;1.83;;;8.20;99.90;;;;;;5092702;28;20655;-60
2021/12/29 07:20:24;;;;;;;4.50;1.27;;;8.20;99.90;;;;;;5092379;28;20208;-62
2021/12/29 07:22:50;;;;;;;6.03;1.50;;;8.10;99.90;;;;;;5092857;28;20218;-62
2021/12/29 07:25:15;;;;;;;8.50;1.95;;;8.10;99.90;;;;;;5105204;28;20608;-62
2021/12/29 07:27:41;;;;;;;6.10;1.40;;;8.20;99.90;;;;;;5092771;28;20172;-66
2021/12/29 07:30:07;;;;;;;4.97;1.67;;;8.20;99.90;;;;;;5092403;28;20549;-68
2021/12/29 07:32:33;;;;;;;7.32;1.65;;;8.10;99.90;;;;;;5092268;28;20203;-67
2021/12/29 07:34:58;;;;;;;2.20;1.13;;;8.20;99.90;;;;;;5092555;28;20187;-67
2021/12/29 07:37:24;;;;;;;4.97;1.67;;;8.20;99.90;;;;;;5092255;28;20188;-65
2021/12/29 07:39:49;;;;;;;8.43;2.03;;;8.20;99.90;;;;;;5091530;28;20184;-66
2021/12/29 07:42:15;;;;;;;11.20;1.77;;;8.20;99.90;;;;;;5092638;28;20176;-65
2021/12/29 07:44:43;;;;;;;4.40;1.75;;;8.20;99.90;;;;;;5090755;28;20215;-62
2021/12/29 07:47:10;;;;;;;4.60;1.60;;;8.30;99.90;;;;;;5090657;28;20634;-65
2021/12/29 07:49:35;;;;;;;7.55;1.50;;;8.30;99.90;;;;;;5092054;28;20184;-64
2021/12/29 07:52:01;;;;;;;2.38;1.42;;;8.30;99.90;;;;;;5091980;28;20523;-63
2021/12/29 07:54:27;;;;;;;5.32;1.95;;;8.30;99.90;;;;;;5091783;28;20184;-65
2021/12/29 07:56:52;;;;;;;3.38;1.52;;;8.30;99.90;;;;;;5091911;28;20208;-62
2021/12/29 07:59:19;;;;;;;6.82;1.90;;;8.40;99.90;;;;;;5091622;28;20179;-66
2021/12/29 08:01:45;;;;;;;7.35;2.05;;;8.40;99.90;;;;;;5092031;28;20274;-65
2021/12/29 08:04:13;;;;;;;6.88;1.83;;;8.40;99.90;;;;;;5089675;28;20290;-66
2021/12/29 08:06:39;;;;;;;7.50;1.50;;;8.40;99.90;;;;;;5091611;28;20168;-66
2021/12/29 08:09:07;;;;;;;8.15;1.67;;;8.40;99.90;;;;;;5091946;28;20226;-64
2021/12/29 08:11:33;;;;;;;3.75;1.90;;;8.50;99.90;;;;;;5089716;28;20176;-65
2021/12/29 08:13:58;;;;;;;8.88;1.80;;;8.50;99.90;;;;;;5089386;28;20673;-63
2021/12/29 08:16:24;;;;;;;3.80;1.35;;;8.60;99.90;;;;;;5091281;28;20269;-65
2021/12/29 08:18:50;;;;;;;3.17;1.20;;;8.60;99.90;;;;;;5091328;28;20275;-63
2021/12/29 08:21:15;;;;;;;4.40;1.38;;;8.70;99.90;;;;;;5091188;28;20180;-62
2021/12/29 08:23:41;;;;;;;2.33;1.00;;;8.70;99.90;;;;;;5091461;28;20204;-67
2021/12/29 08:26:06;;;;;;;3.47;1.00;;;8.70;99.90;;;;;;5090164;28;20233;-68
2021/12/29 08:28:32;;;;;;;4.18;1.13;;;8.70;99.90;;;;;;5091153;28;20176;-63
2021/12/29 08:30:58;;;;;;;2.65;1.15;;;8.80;99.90;;;;;;5091479;28;20635;-68
2021/12/29 08:33:24;;;;;;;3.40;1.38;;;8.80;99.90;;;;;;5086354;28;20191;-63
2021/12/29 08:35:50;;;;;;;3.17;1.15;;;8.90;99.90;;;;;;5090921;28;20183;-62
2021/12/29 08:38:16;;;;;;;2.80;1.10;;;8.90;99.90;;;;;;5091493;28;20192;-61
2021/12/29 08:40:42;;;;;;;3.40;0.90;;;8.90;99.90;;;;;;5091374;28;20534;-65
2021/12/29 08:43:11;;;;;;;7.18;1.02;;;8.80;99.90;;;;;;5089640;28;20208;-61
2021/12/29 08:45:42;;;;;;;3.00;1.00;;;8.80;99.90;;;;;;5091978;28;20270;-63
2021/12/29 08:48:08;;;;;;;5.80;1.75;;;8.80;99.90;;;;;;5088331;28;20172;-63
2021/12/29 08:50:34;;;;;;;2.38;1.10;;;8.80;99.90;;;;;;5092421;28;20659;-64
2021/12/29 08:53:03;;;;;;;3.17;1.48;;;8.80;99.90;;;;;;5091269;28;20588;-62
2021/12/29 08:55:31;;;;;;;6.05;1.48;;;8.70;99.90;;;;;;5091226;28;20175;-62
2021/12/29 08:57:56;;;;;;;6.03;2.25;;;8.70;99.90;;;;;;5090986;28;20232;-63
2021/12/29 09:00:22;;;;;;;2.72;1.08;;;8.80;99.90;;;;;;5091102;28;20188;-63
2021/12/29 09:02:48;;;;;;;2.42;1.15;;;8.80;99.90;;;;;;5090716;28;20204;-63
2021/12/29 09:05:16;;;;;;;7.18;1.30;;;8.80;99.90;;;;;;5090930;28;20271;-62
2021/12/29 09:07:43;;;;;;;3.28;1.17;;;8.80;99.90;;;;;;5090979;28;20184;-65
2021/12/29 09:10:10;;;;;;;4.70;1.35;;;8.80;99.90;;;;;;5091211;28;20183;-64
2021/12/29 09:12:36;;;;;;;4.43;0.93;;;8.80;99.90;;;;;;5092447;28;20643;-63
2021/12/29 09:15:04;;;;;;;13.27;7.63;;;8.90;99.90;;;;;;5094440;28;20215;-63
2021/12/29 09:17:30;;;;;;;46.10;25.48;;;8.90;99.90;;;;;;5094413;28;20180;-65
2021/12/29 09:19:55;;;;;;;4.70;2.97;;;8.90;99.90;;;;;;5094158;28;20185;-67
2021/12/29 09:22:21;;;;;;;11.80;5.60;;;8.90;99.90;;;;;;5094611;28;20176;-64
2021/12/29 09:24:46;;;;;;;9.70;4.80;;;8.90;99.90;;;;;;5094539;28;20332;-63
2021/12/29 09:27:15;;;;;;;9.27;4.57;;;8.90;99.90;;;;;;5093147;28;20172;-65
2021/12/29 09:29:41;;;;;;;7.72;4.15;;;8.90;99.90;;;;;;5093468;28;20184;-63
2021/12/29 09:32:06;;;;;;;5.10;2.85;;;8.90;99.90;;;;;;5094240;28;20184;-62
2021/12/29 09:34:33;;;;;;;8.98;3.30;;;9.00;99.90;;;;;;5094158;28;20480;-62
2021/12/29 09:37:00;;;;;;;3.33;1.90;;;9.00;99.90;;;;;;5094243;28;20211;-63
2021/12/29 09:39:26;;;;;;;5.78;1.80;;;9.00;99.90;;;;;;5094552;28;20203;-61
2021/12/29 09:41:52;;;;;;;112.05;58.92;;;9.10;99.90;;;;;;5093140;28;20635;-61
2021/12/29 09:44:18;;;;;;;3.35;1.77;;;9.50;99.90;;;;;;5082648;28;20224;-62
2021/12/29 09:46:44;;;;;;;3.38;1.50;;;10.20;99.90;;;;;;5088631;28;20635;-62
2021/12/29 09:49:10;;;;;;;6.50;1.50;;;10.30;99.90;;;;;;5086302;28;20190;-64
2021/12/29 09:51:35;;;;;;;4.03;1.52;;;10.10;99.90;;;;;;5100323;28;20185;-65
2021/12/29 09:54:02;;;;;;;2.80;1.35;;;10.00;99.90;;;;;;5103988;28;20175;-64
2021/12/29 09:56:28;;;;;;;3.22;1.23;;;9.80;99.90;;;;;;5093707;28;20593;-65
2021/12/29 09:58:57;;;;;;;4.00;1.30;;;9.80;99.90;;;;;;5094018;28;20271;-65
2021/12/29 10:01:23;;;;;;;5.03;1.60;;;9.70;99.90;;;;;;5092201;28;20598;-65
2021/12/29 10:03:49;;;;;;;7.72;1.20;;;9.70;99.90;;;;;;5091905;28;20216;-64
2021/12/29 10:06:15;;;;;;;5.93;1.30;;;9.70;99.90;;;;;;5093332;28;20199;-66
2021/12/29 10:08:44;;;;;;;4.15;1.40;;;9.70;99.90;;;;;;5093600;28;20639;-63
2021/12/29 10:11:13;;;;;;;6.50;2.03;;;9.70;99.90;;;;;;5093778;28;20539;-65
2021/12/29 10:13:42;;;;;;;4.72;1.70;;;9.70;99.90;;;;;;5093620;28;20176;-64
2021/12/29 10:16:16;;;;;;;5.90;1.90;;;9.70;99.90;;;;;;5093611;28;20211;-64
2021/12/29 10:18:43;;;;;;;6.30;2.30;;;9.70;99.90;;;;;;5093519;28;20212;-64
2021/12/29 10:21:16;;;;;;;7.53;1.52;;;9.60;99.90;;;;;;5093080;28;20267;-65
2021/12/29 10:23:48;;;;;;;9.57;2.60;;;9.70;99.90;;;;;;5093418;28;20271;-65
2021/12/29 10:26:22;;;;;;;6.53;1.77;;;9.70;99.90;;;;;;5093149;28;20183;-65
2021/12/29 10:28:54;;;;;;;8.15;1.40;;;9.70;99.90;;;;;;5093765;28;20168;-64
2021/12/29 10:31:26;;;;;;;7.72;1.88;;;9.70;99.90;;;;;;5094356;28;20184;-64
2021/12/29 10:34:03;;;;;;;3.63;1.35;;;9.70;99.90;;;;;;5093845;28;20202;-65
2021/12/29 10:36:43;;;;;;;3.05;1.38;;;9.80;99.90;;;;;;5092556;28;20180;-67
2021/12/29 10:39:22;;;;;;;4.95;1.48;;;9.80;99.90;;;;;;5092065;28;20647;-67
2021/12/29 10:42:03;;;;;;;5.00;1.30;;;9.80;99.90;;;;;;5089459;28;20286;-67
2021/12/29 10:44:40;;;;;;;3.55;1.20;;;9.80;99.90;;;;;;5092104;28;20222;-64
2021/12/29 10:47:18;;;;;;;9.52;1.50;;;9.90;99.90;;;;;;5093302;28;20236;-66
2021/12/29 10:49:56;;;;;;;3.65;1.52;;;10.00;99.90;;;;;;5096070;28;20179;-67
2021/12/29 10:52:49;;;;;;;6.50;1.42;;;9.90;99.90;;;;;;5091718;28;20737;-66
2021/12/29 10:55:31;;;;;;;3.53;1.50;;;9.90;99.90;;;;;;5089818;28;20196;-67
2021/12/29 10:58:14;;;;;;;4.35;1.27;;;10.00;99.90;;;;;;5088594;28;20303;-68
2021/12/29 11:00:42;;;;;;;6.47;1.42;;;10.00;99.90;;;;;;5091622;28;20186;-67
2021/12/29 11:03:19;;;;;;;4.15;1.30;;;10.00;99.90;;;;;;5092676;28;20238;-66
2021/12/29 11:05:47;;;;;;;4.13;1.33;;;10.00;99.90;;;;;;5091533;28;20179;-66
2021/12/29 11:08:14;;;;;;;5.88;1.30;;;10.00;99.90;;;;;;5092774;28;20255;-67
2021/12/29 11:10:40;;;;;;;5.68;1.50;;;10.00;99.90;;;;;;5092761;28;20183;-66
2021/12/29 11:13:06;;;;;;;5.55;1.10;;;10.00;99.90;;;;;;5092243;28;20698;-68
2021/12/29 11:15:36;;;;;;;3.42;1.10;;;10.00;99.90;;;;;;5091697;28;20694;-66
2021/12/29 11:18:08;;;;;;;4.20;1.50;;;10.10;99.90;;;;;;5092684;28;20180;-68
2021/12/29 11:20:35;;;;;;;3.92;1.50;;;10.10;99.90;;;;;;5092578;28;20164;-66
2021/12/29 11:23:08;;;;;;;6.13;1.50;;;10.10;99.90;;;;;;5092669;28;20200;-67
2021/12/29 11:25:34;;;;;;;3.25;1.40;;;10.10;99.90;;;;;;5091475;28;20180;-67
2021/12/29 11:28:01;;;;;;;8.02;1.85;;;10.10;99.90;;;;;;5092840;28;20169;-67
2021/12/29 11:30:27;;;;;;;14.05;4.72;;;10.00;99.90;;;;;;5092385;28;20187;-65
2021/12/29 11:33:05;;;;;;;6.70;1.30;;;10.00;99.90;;;;;;5091267;28;20229;-67
2021/12/29 11:35:31;;;;;;;3.75;1.33;;;9.90;99.90;;;;;;5091995;28;20710;-67
2021/12/29 11:38:01;;;;;;;4.30;1.48;;;9.90;99.90;;;;;;5092644;28;20204;-67
2021/12/29 11:40:30;;;;;;;5.07;1.10;;;10.00;99.90;;;;;;5092600;28;20259;-66
2021/12/29 11:42:56;;;;;;;6.80;2.13;;;9.90;99.90;;;;;;5093253;28;20224;-67
2021/12/29 11:45:23;;;;;;;3.40;0.93;;;9.90;99.90;;;;;;5101690;28;20180;-66
2021/12/29 11:47:50;;;;;;;6.03;1.40;;;9.80;99.90;;;;;;5115017;28;20167;-67
2021/12/29 11:50:29;;;;;;;5.53;1.70;;;9.80;99.90;;;;;;5115198;28;20304;-68
2021/12/29 11:53:00;;;;;;;6.80;1.85;;;9.90;99.90;;;;;;5115134;28;20537;-66
2021/12/29 11:55:30;;;;;;;8.02;1.80;;;9.90;99.90;;;;;;5114666;28;20167;-67
2021/12/29 11:58:18;;;;;;;8.93;1.58;;;9.90;99.90;;;;;;5115051;28;20296;-67
2021/12/29 12:00:57;;;;;;;5.28;1.23;;;9.90;99.90;;;;;;5115474;28;20175;-66
2021/12/29 12:03:23;;;;;;;3.28;1.25;;;9.80;99.90;;;;;;5109534;28;20302;-65
2021/12/29 12:05:49;;;;;;;7.63;1.52;;;9.80;99.90;;;;;;5092505;28;20286;-66
2021/12/29 12:08:20;;;;;;;5.78;1.50;;;9.90;99.90;;;;;;5100004;28;20179;-66
2021/12/29 12:10:47;;;;;;;3.97;1.42;;;9.90;99.90;;;;;;5094430;28;20204;-67
2021/12/29 12:13:30;;;;;;;7.75;1.75;;;9.90;99.90;;;;;;5092444;28;20172;-65
2021/12/29 12:16:13;;;;;;;4.63;1.55;;;9.90;99.90;;;;;;5092276;28;20268;-66
2021/12/29 12:18:54;;;;;;;10.63;2.10;;;9.90;99.90;;;;;;5094199;28;20251;-66
2021/12/29 12:21:33;;;;;;;9.00;2.13;;;10.00;99.90;;;;;;5092949;28;20661;-67
2021/12/29 12:24:20;;;;;;;5.05;1.63;;;10.00;99.90;;;;;;5094344;28;20215;-67
2021/12/29 12:26:58;;;;;;;5.60;1.92;;;10.10;99.90;;;;;;5093129;28;20195;-66
2021/12/29 12:29:26;;;;;;;4.35;1.70;;;10.10;99.90;;;;;;5092164;28;20195;-66
2021/12/29 12:32:09;;;;;;;6.78;1.88;;;10.20;99.90;;;;;;5090865;28;20182;-65
2021/12/29 12:34:54;;;;;;;8.18;2.00;;;10.20;99.90;;;;;;5090690;28;20176;-67
2021/12/29 12:37:33;;;;;;;5.88;1.58;;;10.30;99.90;;;;;;5092437;28;20174;-67
2021/12/29 12:40:21;;;;;;;5.35;1.90;;;10.30;99.90;;;;;;5071965;28;20180;-67
2021/12/29 12:43:11;;;;;;;5.05;1.88;;;10.30;99.90;;;;;;5071858;28;20248;-67
2021/12/29 12:45:42;;;;;;;12.10;1.98;;;10.30;99.90;;;;;;5083818;28;20639;-67
2021/12/29 12:48:13;;;;;;;5.82;1.90;;;10.30;99.90;;;;;;5093751;28;20222;-66
2021/12/29 12:50:42;;;;;;;4.57;1.63;;;10.30;99.90;;;;;;5095847;28;20168;-67
2021/12/29 12:53:08;;;;;;;33.33;19.75;;;10.20;99.90;;;;;;5095249;28;20175;-64
2021/12/29 12:55:48;;;;;;;33.25;14.80;;;10.30;99.90;;;;;;5095452;28;20272;-65
2021/12/29 12:58:17;;;;;;;10.00;2.28;;;10.80;99.90;;;;;;5094792;28;20215;-65
2021/12/29 13:00:51;;;;;;;4.00;1.65;;;11.20;99.90;;;;;;5095640;28;20172;-65
2021/12/29 13:03:19;;;;;;;11.25;2.00;;;11.10;99.90;;;;;;5094924;28;20220;-65